Time;durP1;ratioP1;P1;durP2;ratioP2;P2;SDS_P1;SDS_P2;PMS_P1;PMS_P2;Temp;Humidity;BMP_temperature;BMP_pressure;BME280_temperature;BME280_humidity;BME280_pressure;Samples;Min_cycle;Max_cycle;Signal;HPM_P1;HPM_P2
2022/05/08 00:02:07;;;;;;;18.40;15.45;;;14.40;99.90;;;;;;5055543;28;20291;-67
2022/05/08 00:04:34;;;;;;;18.45;15.95;;;14.40;99.90;;;;;;5055540;28;20224;-67
2022/05/08 00:07:01;;;;;;;17.75;15.13;;;14.40;99.90;;;;;;5055394;28;20205;-67
2022/05/08 00:09:28;;;;;;;17.92;15.57;;;14.30;99.90;;;;;;5055608;28;20224;-67
2022/05/08 00:11:56;;;;;;;17.85;15.35;;;14.30;99.90;;;;;;5055031;28;20570;-67
2022/05/08 00:14:23;;;;;;;16.80;14.98;;;14.30;99.90;;;;;;5054591;28;20277;-67
2022/05/08 00:16:50;;;;;;;17.30;15.52;;;14.30;99.90;;;;;;5055089;28;20204;-67
2022/05/08 00:19:17;;;;;;;17.98;15.20;;;14.30;99.90;;;;;;5055048;28;20208;-67
2022/05/08 00:21:44;;;;;;;16.48;14.68;;;14.30;99.90;;;;;;5054959;28;20682;-67
2022/05/08 00:24:11;;;;;;;18.40;15.63;;;14.30;99.90;;;;;;5054868;28;20227;-67
2022/05/08 00:26:38;;;;;;;19.98;15.40;;;14.20;99.90;;;;;;5055348;28;20200;-67
2022/05/08 00:29:06;;;;;;;16.80;14.40;;;14.10;99.90;;;;;;5054992;28;20316;-67
2022/05/08 00:31:33;;;;;;;19.85;15.68;;;14.00;99.90;;;;;;5055361;28;20209;-68
2022/05/08 00:33:59;;;;;;;19.77;15.40;;;14.10;99.90;;;;;;5054830;28;20312;-67
2022/05/08 00:36:26;;;;;;;16.05;13.82;;;14.00;99.90;;;;;;5054997;28;20291;-67
2022/05/08 00:38:55;;;;;;;15.88;14.23;;;14.00;99.90;;;;;;5054980;28;20206;-67
2022/05/08 00:41:22;;;;;;;16.63;14.93;;;13.90;99.90;;;;;;5054886;28;20247;-67
2022/05/08 00:43:48;;;;;;;17.58;15.07;;;14.00;99.90;;;;;;5054384;28;20638;-68
2022/05/08 00:46:17;;;;;;;17.55;15.68;;;14.00;99.90;;;;;;5054664;28;20666;-67
2022/05/08 00:48:45;;;;;;;17.83;15.10;;;13.80;99.90;;;;;;5054503;28;20704;-67
2022/05/08 00:51:14;;;;;;;16.92;14.25;;;13.60;99.90;;;;;;5054522;28;20199;-67
2022/05/08 00:53:42;;;;;;;18.40;14.68;;;13.40;99.90;;;;;;5054294;28;20228;-68
2022/05/08 00:56:10;;;;;;;19.65;15.70;;;13.30;99.90;;;;;;5054627;28;20195;-68
2022/05/08 00:58:39;;;;;;;17.27;15.45;;;13.30;99.90;;;;;;5054396;28;20207;-67
2022/05/08 01:01:06;;;;;;;18.60;15.85;;;13.40;99.90;;;;;;5054476;28;20211;-67
2022/05/08 01:03:34;;;;;;;19.15;16.70;;;13.50;99.90;;;;;;5053987;28;20233;-67
2022/05/08 01:06:05;;;;;;;19.95;16.50;;;13.50;99.90;;;;;;5054541;28;20200;-68
2022/05/08 01:08:34;;;;;;;19.67;16.40;;;13.50;99.90;;;;;;5054648;28;20200;-67
2022/05/08 01:11:02;;;;;;;20.58;16.40;;;13.40;99.90;;;;;;5054125;28;20231;-67
2022/05/08 01:13:29;;;;;;;19.52;16.02;;;13.40;99.90;;;;;;5053923;28;20226;-67
2022/05/08 01:15:56;;;;;;;20.10;16.13;;;13.40;99.90;;;;;;5054290;28;20231;-67
2022/05/08 01:18:24;;;;;;;18.77;15.73;;;13.50;99.90;;;;;;5054129;28;20210;-67
2022/05/08 01:20:53;;;;;;;19.80;16.08;;;13.50;99.90;;;;;;5054025;28;20209;-67
2022/05/08 01:23:21;;;;;;;18.15;15.52;;;13.50;99.90;;;;;;5053537;28;20564;-67
2022/05/08 01:25:51;;;;;;;18.50;15.35;;;13.50;99.90;;;;;;5053931;28;20210;-67
2022/05/08 01:28:19;;;;;;;19.15;16.35;;;13.50;99.90;;;;;;5054242;28;20200;-67
2022/05/08 01:30:48;;;;;;;20.27;16.85;;;13.40;99.90;;;;;;5053699;28;20723;-67
2022/05/08 01:33:15;;;;;;;18.60;16.00;;;13.30;99.90;;;;;;5053487;28;20294;-67
2022/05/08 01:35:42;;;;;;;18.95;15.60;;;13.40;99.90;;;;;;5054207;28;20563;-67
2022/05/08 01:38:11;;;;;;;21.20;17.08;;;13.20;99.90;;;;;;5053816;28;20298;-68
2022/05/08 01:40:39;;;;;;;19.63;16.02;;;13.20;99.90;;;;;;5053793;28;20200;-67
2022/05/08 01:43:07;;;;;;;24.60;18.75;;;13.20;99.90;;;;;;5053554;28;20203;-67
2022/05/08 01:45:34;;;;;;;22.38;18.38;;;13.00;99.90;;;;;;5053899;28;20210;-67
2022/05/08 01:51:01;;;;;;;22.13;18.10;;;12.80;99.90;;;;;;5011853;28;20605;-67
2022/05/08 01:53:31;;;;;;;20.95;17.65;;;12.90;99.90;;;;;;5011494;28;20230;-68
2022/05/08 01:56:00;;;;;;;21.17;16.80;;;12.90;99.90;;;;;;5031481;28;20208;-67
2022/05/08 01:58:28;;;;;;;23.60;17.75;;;12.90;99.90;;;;;;5053567;28;20684;-67
2022/05/08 02:00:57;;;;;;;20.90;17.20;;;12.90;99.90;;;;;;5053574;28;20553;-67
2022/05/08 02:03:24;;;;;;;20.13;16.88;;;13.00;99.90;;;;;;5053327;28;20203;-68
2022/05/08 02:05:52;;;;;;;22.00;17.77;;;12.90;99.90;;;;;;5053634;28;20207;-67
2022/05/08 02:08:20;;;;;;;19.88;17.73;;;12.90;99.90;;;;;;5053610;28;20210;-67
2022/05/08 02:10:47;;;;;;;21.55;18.05;;;13.00;99.90;;;;;;5053399;28;20231;-68
2022/05/08 02:13:15;;;;;;;19.25;17.17;;;13.00;99.90;;;;;;5053157;28;20199;-67
2022/05/08 02:15:42;;;;;;;23.08;17.67;;;13.00;99.90;;;;;;5053552;28;20294;-67
2022/05/08 02:18:10;;;;;;;20.25;17.05;;;13.00;99.90;;;;;;5053513;28;20200;-67
2022/05/08 02:20:39;;;;;;;22.70;18.00;;;13.00;99.90;;;;;;5053433;28;20634;-67
2022/05/08 02:23:06;;;;;;;19.75;16.92;;;13.00;99.90;;;;;;5052977;28;20203;-67
2022/05/08 02:25:33;;;;;;;22.20;18.13;;;13.10;99.90;;;;;;5053409;28;20204;-67
2022/05/08 02:28:00;;;;;;;25.20;18.63;;;13.10;99.90;;;;;;5053226;28;20210;-67
2022/05/08 02:30:28;;;;;;;18.83;16.80;;;13.00;99.90;;;;;;5053255;28;20319;-67
2022/05/08 02:32:55;;;;;;;20.00;16.52;;;13.10;99.90;;;;;;5053207;28;20208;-67
2022/05/08 02:35:23;;;;;;;20.73;16.70;;;13.10;99.90;;;;;;5053266;28;20230;-68
2022/05/08 02:37:52;;;;;;;18.77;16.45;;;13.10;99.90;;;;;;5057163;28;20298;-67
2022/05/08 02:40:20;;;;;;;18.30;15.20;;;13.10;99.90;;;;;;5057249;28;20246;-67
2022/05/08 02:42:47;;;;;;;18.48;14.88;;;13.10;99.90;;;;;;5056760;28;20618;-68
2022/05/08 02:45:14;;;;;;;18.52;15.73;;;13.10;99.90;;;;;;5056963;28;20230;-68
2022/05/08 02:47:42;;;;;;;19.13;16.15;;;13.10;99.90;;;;;;5056907;28;20204;-67
2022/05/08 02:50:11;;;;;;;18.27;15.25;;;13.10;99.90;;;;;;5056795;28;20570;-68
2022/05/08 02:52:38;;;;;;;18.70;15.30;;;13.00;99.90;;;;;;5056475;28;20263;-67
2022/05/08 03:00:36;;;;;;;20.13;16.25;;;13.00;99.90;;;;;;5056646;28;20218;-67
2022/05/08 03:03:05;;;;;;;20.48;17.10;;;12.90;99.90;;;;;;5056431;28;20202;-67
2022/05/08 03:05:32;;;;;;;21.42;17.42;;;12.90;99.90;;;;;;5056768;28;20203;-67
2022/05/08 03:07:59;;;;;;;19.45;16.85;;;13.00;99.90;;;;;;5056681;28;20205;-68
2022/05/08 03:10:26;;;;;;;19.98;17.00;;;13.00;99.90;;;;;;5056576;28;20228;-67
2022/05/08 03:12:53;;;;;;;21.00;17.95;;;12.90;99.90;;;;;;5056277;28;20204;-67
2022/05/08 03:15:20;;;;;;;21.58;17.58;;;12.80;99.90;;;;;;5056491;28;20219;-67
2022/05/08 03:17:46;;;;;;;21.40;18.05;;;12.50;99.90;;;;;;5056578;28;20207;-67
2022/05/08 03:20:15;;;;;;;21.15;17.70;;;12.30;99.90;;;;;;5056396;28;20199;-68
2022/05/08 03:22:41;;;;;;;24.00;18.75;;;12.10;99.90;;;;;;5056269;28;20291;-67
2022/05/08 03:25:09;;;;;;;22.92;17.05;;;12.10;99.90;;;;;;5056079;28;20800;-67
2022/05/08 03:27:36;;;;;;;20.73;16.38;;;12.30;99.90;;;;;;5056175;28;20362;-67
2022/05/08 03:30:03;;;;;;;20.67;16.75;;;12.30;99.90;;;;;;5056154;28;20241;-67
2022/05/08 03:32:31;;;;;;;19.48;16.80;;;12.40;99.90;;;;;;5055980;28;20203;-67
2022/05/08 03:34:58;;;;;;;21.10;17.20;;;12.50;99.90;;;;;;5055857;28;20281;-67
2022/05/08 03:37:26;;;;;;;18.90;16.10;;;12.50;99.90;;;;;;5056080;28;20297;-67
2022/05/08 03:39:53;;;;;;;23.10;17.52;;;12.50;99.90;;;;;;5056052;28;20290;-67
2022/05/08 03:42:20;;;;;;;21.85;17.05;;;12.50;99.90;;;;;;5055658;28;20741;-67
2022/05/08 03:44:47;;;;;;;22.88;17.40;;;12.50;99.90;;;;;;5055963;28;20223;-67
2022/05/08 03:47:14;;;;;;;24.48;17.10;;;12.60;99.90;;;;;;5055762;28;20595;-67
2022/05/08 03:49:41;;;;;;;27.02;18.30;;;12.60;99.90;;;;;;5055748;28;20200;-67
2022/05/08 03:52:09;;;;;;;24.08;18.15;;;12.60;99.90;;;;;;5055725;28;20211;-68
2022/05/08 03:54:37;;;;;;;22.55;17.73;;;12.40;99.90;;;;;;5055504;28;20231;-67
2022/05/08 03:57:05;;;;;;;22.70;17.20;;;12.40;99.90;;;;;;5055667;28;20659;-67
2022/05/08 03:59:31;;;;;;;21.42;16.77;;;12.50;99.90;;;;;;5055744;28;20210;-67
2022/05/08 04:01:58;;;;;;;23.85;18.00;;;12.50;99.90;;;;;;5055538;28;20200;-67
2022/05/08 04:04:25;;;;;;;20.92;16.67;;;12.40;99.90;;;;;;5055359;28;20234;-67
2022/05/08 04:06:52;;;;;;;23.52;17.15;;;12.40;99.90;;;;;;5055814;28;20203;-67
2022/05/08 04:09:19;;;;;;;22.42;16.48;;;12.50;99.90;;;;;;5055529;28;20204;-67
2022/05/08 04:11:47;;;;;;;22.30;17.35;;;12.50;99.90;;;;;;5055305;28;20227;-67
2022/05/08 04:14:14;;;;;;;21.08;16.60;;;12.50;99.90;;;;;;5054960;28;20255;-67
2022/05/08 04:16:40;;;;;;;21.33;16.00;;;12.50;99.90;;;;;;5055277;28;20214;-68
2022/05/08 04:19:07;;;;;;;20.00;15.93;;;12.60;99.90;;;;;;5055297;28;20199;-67
2022/05/08 04:21:34;;;;;;;19.05;15.18;;;12.60;99.90;;;;;;5055071;28;20946;-68
2022/05/08 04:24:18;;;;;;;18.38;15.75;;;12.60;99.90;;;;;;5054911;28;20223;-68
2022/05/08 04:26:47;;;;;;;23.00;17.35;;;12.60;99.90;;;;;;5055176;28;20183;-68
2022/05/08 04:29:14;;;;;;;22.42;16.67;;;12.50;99.90;;;;;;5054965;28;20207;-67
2022/05/08 04:31:41;;;;;;;22.30;16.98;;;12.50;99.90;;;;;;5054871;28;20250;-68
2022/05/08 04:34:07;;;;;;;22.98;17.45;;;12.40;99.90;;;;;;5054981;28;20229;-68
2022/05/08 04:36:34;;;;;;;23.02;17.38;;;12.40;99.90;;;;;;5054988;28;20290;-68
2022/05/08 04:39:01;;;;;;;25.45;17.73;;;12.40;99.90;;;;;;5055131;28;20298;-67
2022/05/08 04:41:28;;;;;;;23.02;18.40;;;12.30;99.90;;;;;;5054795;28;20203;-67
2022/05/08 04:44:00;;;;;;;26.33;18.63;;;12.20;99.90;;;;;;5054678;28;20227;-67
2022/05/08 04:46:27;;;;;;;26.15;18.48;;;12.10;99.90;;;;;;5054918;28;20253;-67
2022/05/08 04:48:54;;;;;;;28.95;18.85;;;12.10;99.90;;;;;;5054836;28;20210;-67
2022/05/08 04:51:21;;;;;;;23.95;18.63;;;12.00;99.90;;;;;;5054669;28;20223;-68
2022/05/08 04:53:47;;;;;;;21.90;17.42;;;12.10;99.90;;;;;;5054183;28;20235;-68
2022/05/08 04:56:14;;;;;;;22.73;17.83;;;12.00;99.90;;;;;;5054602;28;20187;-67
2022/05/08 04:58:41;;;;;;;23.20;16.52;;;12.10;99.90;;;;;;5054128;28;20212;-68
2022/05/08 05:01:09;;;;;;;20.70;16.38;;;12.20;99.90;;;;;;5054542;28;20294;-67
2022/05/08 05:03:36;;;;;;;21.55;17.17;;;12.40;99.90;;;;;;5054222;28;20228;-67
2022/05/08 05:06:03;;;;;;;25.02;17.95;;;12.40;99.90;;;;;;5054482;28;20231;-69
2022/05/08 05:08:30;;;;;;;24.05;17.25;;;12.40;99.90;;;;;;5054333;28;20203;-69
2022/05/08 05:10:56;;;;;;;26.63;19.08;;;12.30;99.90;;;;;;5054249;28;20314;-69
2022/05/08 05:13:23;;;;;;;24.75;18.27;;;12.30;99.90;;;;;;5054122;28;20203;-69
2022/05/08 05:15:50;;;;;;;23.45;17.05;;;12.40;99.90;;;;;;5054878;28;20257;-69
2022/05/08 05:18:18;;;;;;;25.60;18.95;;;12.20;99.90;;;;;;5054217;28;20299;-69
2022/05/08 05:20:46;;;;;;;24.90;19.42;;;12.30;99.90;;;;;;5054228;28;20200;-69
2022/05/08 05:23:13;;;;;;;26.35;19.88;;;12.20;99.90;;;;;;5053710;28;20200;-69
2022/05/08 05:25:40;;;;;;;29.08;20.63;;;12.20;99.90;;;;;;5054070;28;20310;-69
2022/05/08 05:28:07;;;;;;;25.90;20.55;;;12.30;99.90;;;;;;5053967;28;20567;-69
2022/05/08 05:30:34;;;;;;;27.38;19.83;;;12.30;99.90;;;;;;5053987;28;20632;-69
2022/05/08 05:33:01;;;;;;;27.15;20.05;;;12.20;99.90;;;;;;5053605;28;20294;-69
2022/05/08 05:35:29;;;;;;;29.23;20.63;;;12.20;99.90;;;;;;5053745;28;20230;-70
2022/05/08 05:37:55;;;;;;;27.80;20.80;;;12.30;99.90;;;;;;5053834;28;20295;-69
2022/05/08 05:40:22;;;;;;;31.75;21.83;;;12.20;99.90;;;;;;5053553;28;20211;-69
2022/05/08 05:42:49;;;;;;;27.75;19.92;;;12.20;99.90;;;;;;5053524;28;20576;-69
2022/05/08 05:45:16;;;;;;;25.38;18.63;;;12.10;99.90;;;;;;5053855;28;20314;-69
2022/05/08 05:47:52;;;;;;;26.60;19.73;;;12.10;99.90;;;;;;5053586;28;20666;-69
2022/05/08 05:50:20;;;;;;;28.73;19.55;;;12.10;99.90;;;;;;5053563;28;20224;-69
2022/05/08 05:52:49;;;;;;;24.77;19.10;;;12.20;99.90;;;;;;5053223;28;20216;-69
2022/05/08 05:55:16;;;;;;;27.40;19.80;;;12.20;99.90;;;;;;5053482;28;20600;-69
2022/05/08 05:57:43;;;;;;;28.60;20.30;;;12.20;99.90;;;;;;5053525;28;20569;-69
2022/05/08 06:00:12;;;;;;;26.88;18.95;;;12.10;99.90;;;;;;5053482;28;20214;-69
2022/05/08 06:02:40;;;;;;;29.55;21.50;;;12.10;99.90;;;;;;5053254;28;20584;-69
2022/05/08 06:05:07;;;;;;;28.75;21.88;;;12.20;99.90;;;;;;5053481;28;20627;-69
2022/05/08 06:07:34;;;;;;;28.90;21.85;;;12.20;99.90;;;;;;5053517;28;20561;-69
2022/05/08 06:10:05;;;;;;;29.52;21.85;;;12.20;99.90;;;;;;5053469;28;20203;-69
2022/05/08 06:12:31;;;;;;;31.30;21.70;;;12.30;99.90;;;;;;5056888;28;20223;-69
2022/05/08 06:14:59;;;;;;;27.35;22.08;;;12.30;99.90;;;;;;5057376;28;20227;-69
2022/05/08 06:17:25;;;;;;;29.45;21.58;;;12.40;99.90;;;;;;5057674;28;20203;-69
2022/05/08 06:19:52;;;;;;;26.23;19.95;;;12.50;99.90;;;;;;5057613;28;20629;-68
2022/05/08 06:22:20;;;;;;;29.27;21.65;;;12.60;99.90;;;;;;5057305;28;20290;-69
2022/05/08 06:24:46;;;;;;;27.58;21.50;;;12.60;99.90;;;;;;5057570;28;20227;-69
2022/05/08 06:27:14;;;;;;;27.75;20.95;;;12.60;99.90;;;;;;5057396;28;20199;-69
2022/05/08 06:29:41;;;;;;;29.75;20.60;;;12.80;99.90;;;;;;5057231;28;20665;-69
2022/05/08 06:32:09;;;;;;;29.38;22.20;;;13.00;99.90;;;;;;5057186;28;20223;-69
2022/05/08 06:34:36;;;;;;;29.58;21.08;;;13.00;99.90;;;;;;5057300;28;20231;-69
2022/05/08 06:37:03;;;;;;;26.70;20.80;;;13.00;99.90;;;;;;5057534;28;20295;-69
2022/05/08 06:39:30;;;;;;;27.20;20.67;;;13.10;99.90;;;;;;5057203;28;20199;-69
2022/05/08 06:41:57;;;;;;;33.67;22.88;;;13.10;99.90;;;;;;5057018;28;20650;-69
2022/05/08 06:44:25;;;;;;;32.63;23.05;;;13.10;99.90;;;;;;5056811;28;20234;-69
2022/05/08 06:46:52;;;;;;;30.83;21.60;;;13.00;99.90;;;;;;5056793;28;20716;-69
2022/05/08 06:49:18;;;;;;;27.80;22.55;;;12.80;99.90;;;;;;5056983;28;20207;-69
2022/05/08 06:51:46;;;;;;;29.45;21.77;;;12.80;99.90;;;;;;5056815;28;20580;-69
2022/05/08 06:54:13;;;;;;;31.20;23.05;;;12.90;99.90;;;;;;5056501;28;20593;-69
2022/05/08 06:56:41;;;;;;;28.98;22.00;;;12.90;99.90;;;;;;5056824;28;20210;-69
2022/05/08 07:01:54;;;;;;;29.63;21.33;;;13.20;99.90;;;;;;5056713;28;20237;-69
2022/05/08 07:04:21;;;;;;;29.90;22.17;;;13.40;99.90;;;;;;5056414;28;20234;-69
2022/05/08 07:06:48;;;;;;;28.48;20.40;;;13.40;99.90;;;;;;5056710;28;20290;-69
2022/05/08 07:09:15;;;;;;;29.30;21.00;;;13.50;99.90;;;;;;5056522;28;20210;-70
2022/05/08 07:11:45;;;;;;;26.42;20.67;;;13.60;99.90;;;;;;5056238;28;20220;-69
2022/05/08 07:14:11;;;;;;;28.45;21.00;;;13.70;99.90;;;;;;5055991;28;20713;-69
2022/05/08 07:16:38;;;;;;;28.13;22.15;;;13.80;99.90;;;;;;5056542;28;20212;-69
2022/05/08 07:19:06;;;;;;;27.05;20.83;;;13.90;99.90;;;;;;5056427;28;20625;-69
2022/05/08 07:21:33;;;;;;;27.50;21.50;;;13.90;99.90;;;;;;5055888;28;20291;-69
2022/05/08 07:24:00;;;;;;;25.52;20.70;;;13.90;99.90;;;;;;5055874;28;20317;-69
2022/05/08 07:26:27;;;;;;;26.45;21.23;;;13.90;99.90;;;;;;5056307;28;20290;-69
2022/05/08 07:28:54;;;;;;;27.55;21.23;;;14.00;99.90;;;;;;5056284;28;20206;-69
2022/05/08 07:31:21;;;;;;;29.02;21.25;;;14.00;99.90;;;;;;5056324;28;20225;-69
2022/05/08 07:36:12;;;;;;;25.88;21.05;;;14.10;99.90;;;;;;5055831;28;20223;-69
2022/05/08 07:36:35;;;;;;;24.73;20.58;;;14.10;99.90;;;;;;5055920;28;20217;-69
2022/05/08 07:39:02;;;;;;;28.02;20.30;;;14.30;99.90;;;;;;5055995;28;20243;-69
2022/05/08 07:41:29;;;;;;;27.67;20.25;;;14.40;99.90;;;;;;5055995;28;20208;-69
2022/05/08 07:43:56;;;;;;;25.20;20.17;;;14.50;99.90;;;;;;5055957;28;20280;-69
2022/05/08 07:46:23;;;;;;;26.33;21.25;;;14.60;99.90;;;;;;5055911;28;20729;-69
2022/05/08 07:48:50;;;;;;;26.15;20.00;;;14.70;99.90;;;;;;5055796;28;20569;-69
2022/05/08 07:51:17;;;;;;;25.55;20.52;;;14.80;99.90;;;;;;5055540;28;20278;-69
2022/05/08 07:53:45;;;;;;;24.25;18.40;;;14.90;99.90;;;;;;5055233;28;20770;-69
2022/05/08 07:56:12;;;;;;;25.00;20.80;;;14.90;99.90;;;;;;5055844;28;20196;-69
2022/05/08 07:58:39;;;;;;;23.95;19.70;;;15.00;99.90;;;;;;5055679;28;20652;-69
2022/05/08 08:01:06;;;;;;;27.88;20.77;;;15.20;99.90;;;;;;5055810;28;20590;-69
2022/05/08 08:03:34;;;;;;;24.92;19.30;;;15.30;99.90;;;;;;5055199;28;20223;-69
2022/05/08 08:06:02;;;;;;;25.83;20.38;;;15.50;99.90;;;;;;5055583;28;20244;-69
2022/05/08 08:08:29;;;;;;;24.20;20.45;;;15.60;99.90;;;;;;5055353;28;20217;-69
2022/05/08 08:10:59;;;;;;;24.52;19.52;;;15.70;99.90;;;;;;5055524;28;20202;-69
2022/05/08 08:13:29;;;;;;;22.40;17.75;;;15.80;99.90;;;;;;5055029;28;20199;-69
2022/05/08 08:15:56;;;;;;;22.42;17.75;;;16.00;99.90;;;;;;5055150;28;20339;-69
2022/05/08 08:18:23;;;;;;;22.25;16.92;;;16.00;99.90;;;;;;5055337;28;20207;-69
2022/05/08 08:20:50;;;;;;;22.55;18.75;;;16.30;99.90;;;;;;5055503;28;20214;-68
2022/05/08 08:23:17;;;;;;;22.20;18.35;;;16.60;99.90;;;;;;5055291;28;20199;-68
2022/05/08 08:25:44;;;;;;;20.95;16.90;;;16.90;99.90;;;;;;5055306;28;20203;-69
2022/05/08 08:28:13;;;;;;;20.73;16.48;;;17.30;99.90;;;;;;5055190;28;20207;-69
2022/05/08 08:30:39;;;;;;;18.70;16.70;;;18.20;99.90;;;;;;5055005;28;20244;-68
2022/05/08 08:33:06;;;;;;;17.13;14.87;;;19.30;99.90;;;;;;5054155;28;20565;-69
2022/05/08 08:35:33;;;;;;;17.27;15.43;;;19.90;99.90;;;;;;5054698;28;20532;-69
2022/05/08 08:38:00;;;;;;;17.30;15.50;;;20.80;98.80;;;;;;5054984;28;20545;-69
2022/05/08 08:40:28;;;;;;;19.53;16.30;;;21.40;97.20;;;;;;5054851;28;20541;-69
2022/05/08 08:42:58;;;;;;;17.63;15.40;;;21.60;96.00;;;;;;5054726;28;20494;-69
2022/05/08 08:48:21;;;;;;;16.00;14.40;;;21.10;95.60;;;;;;5054892;28;20803;-69
2022/05/08 08:50:48;;;;;;;18.40;14.40;;;21.00;95.30;;;;;;5054793;28;20844;-69
2022/05/08 08:53:15;;;;;;;16.00;14.30;;;21.40;95.60;;;;;;5054512;28;20564;-69
2022/05/08 08:55:42;;;;;;;16.67;14.93;;;22.30;92.90;;;;;;5054262;28;20454;-69
2022/05/08 08:58:08;;;;;;;15.13;13.63;;;22.20;92.40;;;;;;5054571;28;20437;-69
2022/05/08 09:00:37;;;;;;;16.07;14.40;;;22.80;91.30;;;;;;5054583;28;20443;-69
2022/05/08 09:03:04;;;;;;;16.10;14.50;;;23.50;90.50;;;;;;5054153;28;20531;-69
2022/05/08 09:05:33;;;;;;;16.17;14.57;;;23.50;85.20;;;;;;5054432;28;20460;-69
2022/05/08 09:08:00;;;;;;;16.10;14.40;;;22.80;87.70;;;;;;5054322;28;20448;-69
2022/05/08 09:10:35;;;;;;;13.97;12.57;;;22.80;89.50;;;;;;5054237;28;20937;-69
2022/05/08 09:13:06;;;;;;;16.10;13.80;;;23.20;89.40;;;;;;5054171;28;20501;-69
2022/05/08 09:15:35;;;;;;;14.80;13.37;;;23.10;87.70;;;;;;5053990;28;20975;-69
2022/05/08 09:18:05;;;;;;;16.40;14.80;;;23.30;87.80;;;;;;5054138;28;20451;-69
2022/05/08 09:20:34;;;;;;;15.00;13.50;;;23.40;87.80;;;;;;5054172;28;20439;-69
2022/05/08 09:23:08;;;;;;;15.70;14.00;;;23.10;87.20;;;;;;5053954;28;20883;-69
2022/05/08 09:25:47;;;;;;;15.30;13.70;;;22.70;88.40;;;;;;5054217;28;20434;-69
2022/05/08 09:28:15;;;;;;;13.17;11.97;;;23.00;88.00;;;;;;5053880;28;20448;-69
2022/05/08 09:31:02;;;;;;;14.50;13.10;;;22.80;88.70;;;;;;5053995;28;20442;-69
2022/05/08 09:33:33;;;;;;;14.57;13.07;;;22.60;89.10;;;;;;5053654;28;20485;-69
2022/05/08 09:36:01;;;;;;;13.90;12.50;;;22.40;90.10;;;;;;5053682;28;20529;-69
2022/05/08 09:38:56;;;;;;;14.73;13.33;;;22.50;89.70;;;;;;5053673;28;20448;-69
2022/05/08 09:41:24;;;;;;;16.40;13.33;;;21.90;90.10;;;;;;5029655;28;20476;-69
2022/05/08 09:43:53;;;;;;;12.83;11.63;;;21.40;91.20;;;;;;5053629;28;20552;-69
2022/05/08 09:46:21;;;;;;;13.47;12.20;;;21.50;91.70;;;;;;5053644;28;20451;-69
2022/05/08 09:48:49;;;;;;;14.43;12.93;;;21.30;91.80;;;;;;5053549;28;20946;-69
2022/05/08 09:51:17;;;;;;;13.57;12.20;;;21.70;91.80;;;;;;5053713;28;20532;-69
2022/05/08 09:53:46;;;;;;;12.37;11.17;;;22.00;91.40;;;;;;5052961;28;20493;-69
2022/05/08 09:56:14;;;;;;;13.90;12.40;;;22.40;91.80;;;;;;5053618;28;20533;-69
2022/05/08 09:58:41;;;;;;;14.43;11.70;;;23.00;89.90;;;;;;5053585;28;20444;-69
2022/05/08 10:01:08;;;;;;;13.30;12.10;;;22.90;89.70;;;;;;5053419;28;20528;-69
2022/05/08 10:03:35;;;;;;;14.13;12.73;;;22.40;88.90;;;;;;5053046;28;20970;-69
2022/05/08 10:06:04;;;;;;;13.40;12.10;;;21.70;90.20;;;;;;5053288;28;20962;-69
2022/05/08 10:08:34;;;;;;;13.87;12.50;;;21.60;91.10;;;;;;5053430;28;20445;-69
2022/05/08 10:14:03;;;;;;;13.10;11.70;;;21.60;92.60;;;;;;5053457;28;20931;-69
2022/05/08 10:16:53;;;;;;;12.83;11.57;;;21.60;91.60;;;;;;5053172;28;20537;-69
2022/05/08 10:19:43;;;;;;;12.67;11.30;;;21.60;91.70;;;;;;5053465;28;20449;-69
2022/05/08 10:22:13;;;;;;;11.97;10.87;;;21.60;91.60;;;;;;5053339;28;20442;-69
2022/05/08 10:24:42;;;;;;;14.20;12.73;;;21.90;92.10;;;;;;5053090;28;20504;-69
2022/05/08 10:27:10;;;;;;;13.30;12.00;;;22.20;91.90;;;;;;5053329;28;20452;-69
2022/05/08 10:29:37;;;;;;;12.93;11.63;;;22.20;92.20;;;;;;5053272;28;20454;-69
2022/05/08 10:32:06;;;;;;;13.00;11.67;;;22.20;91.80;;;;;;5052967;28;20568;-69
2022/05/08 10:34:34;;;;;;;12.60;11.30;;;21.90;91.10;;;;;;5052872;28;20474;-69
2022/05/08 10:37:29;;;;;;;11.57;10.47;;;21.90;91.70;;;;;;5053069;28;20947;-69
2022/05/08 10:39:56;;;;;;;10.77;9.70;;;22.10;90.80;;;;;;5051809;28;20507;-69
2022/05/08 10:42:45;;;;;;;8.20;7.50;;;22.50;88.40;;;;;;5053019;28;20460;-69
2022/05/08 10:45:37;;;;;;;7.20;6.60;;;22.90;82.40;;;;;;5053179;28;20467;-69
2022/05/08 10:48:09;;;;;;;8.33;6.80;;;23.50;78.70;;;;;;5047104;28;20467;-69
2022/05/08 10:50:36;;;;;;;7.30;6.60;;;23.80;76.90;;;;;;5053126;28;20462;-69
2022/05/08 10:53:06;;;;;;;7.70;7.10;;;24.00;74.70;;;;;;5052828;28;20476;-69
2022/05/08 10:55:33;;;;;;;7.67;6.97;;;24.00;73.10;;;;;;5052603;28;20974;-69
2022/05/08 10:58:00;;;;;;;7.50;6.80;;;24.00;73.40;;;;;;5055487;28;20473;-69
2022/05/08 11:00:28;;;;;;;7.20;6.60;;;24.10;72.70;;;;;;5056749;28;20454;-69
2022/05/08 11:02:57;;;;;;;7.67;6.97;;;23.80;70.10;;;;;;5056410;28;20926;-69
2022/05/08 11:05:25;;;;;;;7.63;6.83;;;23.70;70.90;;;;;;5056647;28;20469;-69
2022/05/08 11:07:54;;;;;;;7.80;7.10;;;23.70;72.40;;;;;;5056621;28;20443;-69
2022/05/08 11:10:25;;;;;;;7.90;7.27;;;23.50;74.30;;;;;;5056581;28;20457;-69
2022/05/08 11:13:00;;;;;;;8.03;7.33;;;23.50;73.70;;;;;;5056241;28;20530;-69
2022/05/08 11:15:28;;;;;;;8.10;6.83;;;23.50;72.60;;;;;;5056108;28;20472;-69
2022/05/08 11:18:07;;;;;;;7.50;6.80;;;23.50;71.60;;;;;;5056403;28;20471;-69
2022/05/08 11:20:36;;;;;;;7.40;6.80;;;23.60;72.80;;;;;;5056261;28;20961;-69
2022/05/08 11:23:04;;;;;;;7.60;6.90;;;23.70;75.00;;;;;;5056129;28;20449;-69
2022/05/08 11:25:32;;;;;;;7.63;6.93;;;23.70;72.10;;;;;;5056218;28;20515;-69
2022/05/08 11:27:59;;;;;;;8.40;7.60;;;23.70;70.60;;;;;;5056506;28;20449;-69
2022/05/08 11:30:30;;;;;;;7.63;7.03;;;23.50;70.40;;;;;;5056272;28;20444;-69
2022/05/08 11:36:05;;;;;;;7.47;6.87;;;23.50;72.00;;;;;;5056044;28;20500;-69
2022/05/08 11:38:44;;;;;;;7.57;6.87;;;23.40;71.80;;;;;;5055891;28;20458;-69
2022/05/08 11:41:13;;;;;;;7.57;6.87;;;23.30;71.20;;;;;;5055987;28;20797;-69
2022/05/08 11:43:41;;;;;;;8.23;7.33;;;23.20;71.20;;;;;;5055702;28;20490;-69
2022/05/08 11:46:09;;;;;;;8.03;7.33;;;23.00;70.30;;;;;;5055995;28;20803;-69
2022/05/08 11:48:40;;;;;;;8.30;7.60;;;22.60;72.30;;;;;;5055929;28;20469;-69
2022/05/08 11:51:07;;;;;;;7.63;6.83;;;22.40;73.60;;;;;;5056025;28;20446;-69
2022/05/08 11:53:42;;;;;;;7.87;7.17;;;22.20;73.40;;;;;;5055356;28;20576;-69
2022/05/08 11:56:27;;;;;;;8.83;8.03;;;22.10;74.80;;;;;;5055915;28;20440;-69
2022/05/08 11:58:55;;;;;;;8.10;7.37;;;21.90;75.00;;;;;;5055677;28;20441;-69
2022/05/08 12:01:30;;;;;;;8.20;7.50;;;21.80;75.30;;;;;;5055780;28;20491;-69
2022/05/08 12:04:18;;;;;;;7.50;6.90;;;21.80;77.70;;;;;;5055291;28;20461;-69
2022/05/08 12:07:00;;;;;;;8.70;7.90;;;22.00;77.90;;;;;;5055220;28;20460;-69
2022/05/08 12:09:27;;;;;;;8.40;7.50;;;22.10;76.80;;;;;;5054204;28;20786;-69
2022/05/08 12:11:55;;;;;;;8.80;7.17;;;22.20;76.50;;;;;;5055718;28;20438;-69
2022/05/08 12:14:32;;;;;;;8.67;7.77;;;22.50;75.40;;;;;;5055137;28;20493;-69
2022/05/08 12:17:03;;;;;;;7.93;7.23;;;22.60;75.00;;;;;;5055135;28;20439;-69
2022/05/08 12:19:30;;;;;;;8.23;7.53;;;22.70;75.10;;;;;;5055430;28;20446;-69
2022/05/08 12:21:57;;;;;;;7.27;6.67;;;22.60;74.90;;;;;;5055358;28;20438;-69
2022/05/08 12:24:24;;;;;;;8.00;7.20;;;22.50;74.70;;;;;;5055064;28;20564;-69
2022/05/08 12:26:51;;;;;;;8.00;7.40;;;22.60;74.90;;;;;;5055417;28;20448;-69
2022/05/08 12:29:21;;;;;;;8.47;7.77;;;22.60;75.00;;;;;;5055179;28;20450;-69
2022/05/08 12:31:50;;;;;;;8.40;7.50;;;22.60;75.20;;;;;;5055057;28;20537;-69
2022/05/08 12:34:18;;;;;;;8.47;7.70;;;22.50;74.40;;;;;;5054343;28;20482;-69
2022/05/08 12:36:45;;;;;;;8.60;7.80;;;22.50;75.10;;;;;;5055262;28;20473;-69
2022/05/08 12:39:12;;;;;;;7.90;7.20;;;22.80;75.80;;;;;;5054963;28;20438;-69
2022/05/08 12:41:39;;;;;;;7.43;6.73;;;22.90;74.40;;;;;;5054940;28;20534;-69
2022/05/08 12:44:06;;;;;;;7.10;6.50;;;23.00;74.00;;;;;;5054659;28;20462;-69
2022/05/08 12:46:36;;;;;;;7.30;6.63;;;23.00;72.20;;;;;;5054846;28;20442;-69
2022/05/08 12:49:03;;;;;;;7.90;7.13;;;22.90;72.70;;;;;;5054679;28;20540;-69
2022/05/08 12:51:35;;;;;;;7.73;7.03;;;22.70;72.40;;;;;;5054809;28;20454;-69
2022/05/08 12:54:03;;;;;;;6.40;5.90;;;22.50;73.50;;;;;;5054179;28;20490;-69
2022/05/08 12:56:31;;;;;;;6.73;5.97;;;22.30;71.10;;;;;;5054350;28;20446;-69
2022/05/08 13:01:43;;;;;;;6.20;5.60;;;22.30;69.80;;;;;;5054421;28;20499;-69